»·PEaware :: ACA314 KJAC-KDEN

ACA314 :: KJAC-KDEN

FLIGHT INFORMATION

Flight Status: Arrived
Operator:
Air Canada
More flights by this operator :: More flights under this callsign
Pilot: Tim B. (15084)
Aircraft: AIRBUS A320
(A320)
More flights by this aircraft type
Origin: KJAC Jackson Hole
United States
Destination: KDEN Denver Intl
United States
More flights between these airports :: More routes between these airports
Route: ALPIN2 KICNE OCS GWEDO FRNCH3
File this flight plan on PilotEdge
Remarks:
Altitude:
(Current/Filed)
35,000ft
Speed:
(Current/Filed)
500kts
Departed: 13-May-19 12:08 PM
Arrived: 13-May-19 01:09 PM
Distance/Time
Traveled:
353nm/1:01
Distance/Time
To Go:
Arrived

Flight Plot

Page will automatically refresh every two minutes.

Flight plan parsing failed; only flown route is shown


Map Options




Map Legend


Flown Route
Filed Route
Departure Airport
Arrival Airport
Navaid (VOR, NDB)
Fix

Horizontal Profiles

Position Reports

Time Latitude Longitude Heading Altitude Ground
Speed
13-May-19 11:25 43.602702 -110.737477 109 6427ft 0kts
13-May-19 11:26 43.602702 -110.737477 109 6427ft 0kts
13-May-19 11:27 43.602702 -110.737477 109 6427ft 0kts
13-May-19 11:28 43.602702 -110.737477 109 6427ft 0kts
13-May-19 11:29 43.602702 -110.737477 109 6427ft 0kts
13-May-19 11:30 43.602702 -110.737477 109 6427ft 0kts
13-May-19 11:31 43.602702 -110.737477 109 6427ft 0kts
13-May-19 11:32 43.602702 -110.737477 109 6427ft 0kts
13-May-19 11:33 43.602702 -110.737477 109 6427ft 0kts
13-May-19 11:34 43.602702 -110.737477 109 6427ft 0kts
13-May-19 11:35 43.602702 -110.737477 109 6427ft 0kts
13-May-19 11:36 43.602702 -110.737477 109 6427ft 0kts
13-May-19 11:37 43.602702 -110.737477 109 6427ft 0kts
13-May-19 11:38 43.602702 -110.737478 109 6427ft 0kts
13-May-19 11:39 43.602740 -110.737625 109 6427ft 2kts
13-May-19 11:40 43.602916 -110.738261 81 6426ft 0kts
13-May-19 11:41 43.602819 -110.738355 18 6426ft 0kts
13-May-19 11:42 43.602820 -110.738355 18 6426ft 0kts
13-May-19 11:43 43.602843 -110.738344 18 6426ft 0kts
13-May-19 11:47 43.603464 -110.737087 109 6429ft 0kts
13-May-19 11:48 43.603464 -110.737087 109 6429ft 0kts
13-May-19 11:49 43.603464 -110.737087 109 6429ft 0kts
13-May-19 11:50 43.603464 -110.737087 109 6429ft 0kts
13-May-19 11:51 43.603464 -110.737087 109 6429ft 0kts
13-May-19 11:52 43.603464 -110.737087 109 6429ft 0kts
13-May-19 11:53 43.603464 -110.737087 109 6429ft 0kts
13-May-19 11:54 43.603464 -110.737087 109 6429ft 0kts
13-May-19 11:55 43.603464 -110.737087 109 6429ft 0kts
13-May-19 11:56 43.603464 -110.737087 109 6429ft 0kts
13-May-19 11:57 43.603464 -110.737087 109 6429ft 0kts
13-May-19 11:58 43.603464 -110.737087 109 6429ft 0kts
13-May-19 11:59 43.603606 -110.737635 109 6429ft 2kts
13-May-19 12:00 43.603523 -110.738010 18 6428ft 0kts
13-May-19 12:01 43.603521 -110.738011 18 6428ft 0kts
13-May-19 12:02 43.603544 -110.738000 18 6428ft 1kts
13-May-19 12:03 43.606029 -110.736775 19 6432ft 12kts
13-May-19 12:04 43.608931 -110.735356 19 6437ft 13kts
13-May-19 12:05 43.612573 -110.733570 20 6444ft 10kts
13-May-19 12:06 43.615125 -110.732974 296 6450ft 10kts
13-May-19 12:07 43.606841 -110.738000 200 6433ft 138kts
13-May-19 12:08 43.564357 -110.776293 214 9288ft 191kts
13-May-19 12:09 43.513407 -110.809469 202 12150ft 228kts
13-May-19 12:10 43.444288 -110.851392 205 14051ft 307kts
13-May-19 12:11 43.361068 -110.901854 204 16161ft 348kts
13-May-19 12:12 43.269681 -110.956488 204 18369ft 368kts
13-May-19 12:13 43.173453 -110.924939 134 20488ft 404kts
13-May-19 12:14 43.093922 -110.812791 134 22479ft 417kts
13-May-19 12:15 43.011389 -110.698490 134 24315ft 428kts
13-May-19 12:16 42.924996 -110.585722 138 26079ft 434kts
13-May-19 12:17 42.833980 -110.475676 137 27659ft 442kts
13-May-19 12:18 42.741088 -110.363533 137 29025ft 451kts
13-May-19 12:19 42.646203 -110.249614 138 30254ft 459kts
13-May-19 12:20 42.549863 -110.134460 138 31359ft 466kts
13-May-19 12:21 42.451846 -110.017858 138 32337ft 473kts
13-May-19 12:22 42.352448 -109.900115 137 33160ft 478kts
13-May-19 12:23 42.252208 -109.781971 138 33934ft 480kts
13-May-19 12:24 42.151048 -109.663112 137 34480ft 484kts
13-May-19 12:25 42.049786 -109.544699 137 35094ft 483kts
13-May-19 12:26 41.948643 -109.427025 138 35137ft 482kts
13-May-19 12:27 41.846802 -109.308977 138 35138ft 482kts
13-May-19 12:28 41.745245 -109.191880 138 35138ft 482kts
13-May-19 12:29 41.643469 -109.074927 138 35138ft 484kts
13-May-19 12:30 41.565120 -108.930999 109 35125ft 489kts
13-May-19 12:31 41.514275 -108.762744 109 35138ft 489kts
13-May-19 12:32 41.462933 -108.595195 109 35138ft 489kts
13-May-19 12:33 41.411322 -108.427803 109 35139ft 489kts
13-May-19 12:34 41.360093 -108.262681 110 35147ft 489kts
13-May-19 12:35 41.300085 -108.100948 115 35155ft 488kts
13-May-19 12:36 41.237347 -107.940918 115 35157ft 488kts
13-May-19 12:37 41.174379 -107.781225 115 35156ft 488kts
13-May-19 12:38 41.111160 -107.621608 115 35157ft 488kts
13-May-19 12:39 41.047946 -107.463072 115 35157ft 486kts
13-May-19 12:40 40.984893 -107.305597 115 35156ft 483kts
13-May-19 12:41 40.923607 -107.153378 115 35157ft 482kts
13-May-19 12:42 40.861237 -106.999349 115 35164ft 482kts
13-May-19 12:43 40.798331 -106.844722 115 35167ft 479kts
13-May-19 12:44 40.735695 -106.691682 115 35166ft 478kts
13-May-19 12:45 40.672847 -106.538775 115 35166ft 478kts
13-May-19 12:46 40.609716 -106.386063 115 34322ft 476kts
13-May-19 12:48 40.548025 -106.236854 115 31688ft 460kts
13-May-19 12:49 40.489080 -106.095432 115 28109ft 435kts
13-May-19 12:50 40.439975 -105.957013 98 24537ft 410kts
13-May-19 12:51 40.417894 -105.815098 97 20924ft 390kts
13-May-19 12:52 40.396419 -105.679351 98 17546ft 367kts
13-May-19 12:53 40.376972 -105.556060 98 16985ft 335kts
13-May-19 12:54 40.355637 -105.436208 115 16891ft 341kts
13-May-19 12:55 40.297437 -105.341312 128 15373ft 333kts
13-May-19 12:56 40.237705 -105.247643 128 15007ft 335kts
13-May-19 12:57 40.178258 -105.154619 127 15006ft 333kts
13-May-19 12:58 40.119240 -105.062411 127 14248ft 328kts
13-May-19 12:59 40.060924 -104.971486 127 13027ft 325kts
13-May-19 13:00 40.003631 -104.882482 126 12052ft 321kts
13-May-19 13:01 39.939669 -104.804925 168 11646ft 318kts
13-May-19 13:02 39.853047 -104.803642 177 10163ft 309kts
13-May-19 13:03 39.770370 -104.803925 177 9042ft 291kts
13-May-19 13:04 39.696989 -104.802157 159 9047ft 257kts
13-May-19 13:05 39.676075 -104.726844 53 8069ft 235kts
13-May-19 13:06 39.721379 -104.688356 26 7491ft 175kts
13-May-19 13:06 39.760322 -104.663715 5 6786ft 182kts
13-May-19 13:08 39.812526 -104.660474 354 5741ft 151kts
13-May-19 13:09 39.845148 -104.660413 356 5402ft 36kts
13-May-19 13:09 39.849024 -104.661653 322 5404ft 0kts
13-May-19 13:10 39.850292 -104.662363 346 5407ft 13kts
13-May-19 13:12 39.852278 -104.666228 278 5410ft 16kts
13-May-19 13:12 39.853186 -104.670037 1 5406ft 5kts

Navigation Log

Ident Type
Flight plan parsing failed, navigation log unavailable